Hauptseite
METAR-TAF:

METAR-TAF

Flughäfen :

Heeresflugplatz Niederstetten

Niederstetten, Deutschland

Breite: 49-24N, Länge: 009-58E, Höhe: 468 m

Beobachtung

Neuester Wetterbericht von vor 20 Minuten, um 07:20 UTC
Wind 6 kt aus Ost/Südost
Temperatur 1°C
Luftfeuchtigkeit 80%
Luftdruck 1032 hPa
Sichtweite 10 km oder mehr

METAR: ETHN 010720Z 11006KT 9999 01/M02 Q1032 BLU+BLU+

Zeit: 08:40 (07:40 UTC)

Prognose

Neuester Wetterbericht von vor 2 Stunden und 40 Minuten, um 05:00 UTC
Gültige Prognose vom 01 um 06 UTC bis 01 um 15 UTC
Wind 7 kt aus Ost
Sichtweite 10 km oder mehr
Himmel klar

TAF: ETHN 010500Z 0106/0115 08007KT 9999 NSW SKC

Wetterbeobachtungen und Prognosen von mehr als 4000 Flughäfen (METAR und TAF Bericht).

Die verfügbaren Stationen werden durch gelbe und rote Markierungen auf der Karte dargestellt.

Führen Sie die Maus auf sie, um den Namen der Station zu sehen.

Darauf klicken, um die Beobachtung von Wetterbeobachtungen und Prognosen zu sehen.

Um die Karte zu ändern : klicken Sie auf den grünen Tasten mit einem schwarzen Kreuz Zum Vergrößern, auf den grünen Button mit einem Gedankenstrich zu verkleinern, oder auf die grünen Pfeile für benachbarte Karten.


METAR-TAF: